Live aus Altenrhein
LIVE
LSZR 260650Z VRB01KT CAVOK 15/09 Q1020 NOSIG RMK C

People´s Info Center:

Öffnungszeiten Mo-Fr, 8-18 Uhr

 

info@peoples.ch

 
Aus Österreich:

T: +43 (0)5572 203 610

 

Aus CH / LI / DE:

T: +41 (0)71 858 51 60

 

Offene Stellen

Möchten Sie ein Teil der People´s Familie werden?

 

Ihr Kontakt für Initiativbewerbungen:

 

Tanja Brühwiler

bewerbung@peoples.ch

+41 71 858 51 20